Terminal Aerodrome Forecast
Issued by NWS

Home | Current Version | Previous Version | Text Only | Print | Product List | Glossary On
Versions: 1 2 3 4 5 6 7 8 9 10 11 12 13 14 15 16 17 18
992
FTUS43 KPAH 111720
TAFCGI
TAF
KCGI 111720Z 1118/1218 04010KT P6SM SCT015 BKN050
      TEMPO 1118/1122 SCT050 BKN100
     FM112300 06005KT P6SM OVC100
     FM120500 06003KT P6SM SCT025 OVC050
     FM121300 VRB04KT P6SM OVC025=

USA.gov is the U.S. government's official web portal to all federal, state and local government web resources and services.